Time;durP1;ratioP1;P1;durP2;ratioP2;P2;SDS_P1;SDS_P2;PMS_P1;PMS_P2;Temp;Humidity;BMP_temperature;BMP_pressure;BME280_temperature;BME280_humidity;BME280_pressure;Samples;Min_cycle;Max_cycle;Signal;HPM_P1;HPM_P2
2022/06/05 00:00:08;;;;;;;;;;;;;;;;;;5035379;28;19920;-90
2022/06/05 00:02:45;;;;;;;;;;;;;;;;;;5034148;28;19920;-88
2022/06/05 00:05:29;;;;;;;;;;;;;;;;;;5034099;28;19917;-94
2022/06/05 00:08:10;;;;;;;;;;;;;;;;;;5035397;28;19959;-87
2022/06/05 00:10:42;;;;;;;;;;;;;;;;;;5035279;28;19924;-87
2022/06/05 00:13:28;;;;;;;;;;;;;;;;;;5035397;28;20015;-87
2022/06/05 00:15:54;;;;;;;;;;;;;;;;;;5034973;28;19917;-85
2022/06/05 00:18:19;;;;;;;;;;;;;;;;;;5034694;28;20011;-86
2022/06/05 00:20:45;;;;;;;;;;;;;;;;;;5034708;28;19917;-88
2022/06/05 00:23:11;;;;;;;;;;;;;;;;;;5034564;28;19913;-92
2022/06/05 00:25:56;;;;;;;;;;;;;;;;;;5033328;28;19996;-86
2022/06/05 00:28:36;;;;;;;;;;;;;;;;;;5013459;28;19924;-90
2022/06/05 00:31:11;;;;;;;;;;;;;;;;;;5034782;28;20023;-90
2022/06/05 00:33:42;;;;;;;;;;;;;;;;;;5037618;28;19921;-86
2022/06/05 00:36:31;;;;;;;;;;;;;;;;;;5042330;28;19975;-86
2022/06/05 00:39:05;;;;;;;;;;;;;;;;;;5053786;28;19924;-87
2022/06/05 00:41:40;;;;;;;;;;;;;;;;;;5049933;28;19921;-87
2022/06/05 00:44:06;;;;;;;;;;;;;;;;;;5046008;28;20329;-86
2022/06/05 00:46:32;;;;;;;;;;;;;;;;;;5039410;28;19975;-85
2022/06/05 00:48:58;;;;;;;;;;;;;;;;;;5036286;28;19924;-87
2022/06/05 00:51:23;;;;;;;;;;;;;;;;;;5035040;28;19914;-86
2022/06/05 00:53:49;;;;;;;;;;;;;;;;;;5033101;28;19917;-87
2022/06/05 00:56:15;;;;;;;;;;;;;;;;;;5034094;28;19925;-85
2022/06/05 00:58:41;;;;;;;;;;;;;;;;;;5033977;28;19917;-85
2022/06/05 01:01:07;;;;;;;;;;;;;;;;;;5033794;28;19925;-87
2022/06/05 01:03:32;;;;;;;;;;;;;;;;;;5034011;28;19917;-89
2022/06/05 01:05:57;;;;;;;;;;;;;;;;;;5033970;28;19921;-86
2022/06/05 01:08:23;;;;;;;;;;;;;;;;;;5032721;28;19960;-85
2022/06/05 01:10:48;;;;;;;;;;;;;;;;;;5034200;28;19925;-85
2022/06/05 01:13:31;;;;;;;;;;;;;;;;;;5032633;28;19917;-87
2022/06/05 01:15:59;;;;;;;;;;;;;;;;;;5034111;28;20364;-86
2022/06/05 01:18:30;;;;;;;;;;;;;;;;;;5032431;28;20277;-86
2022/06/05 01:21:25;;;;;;;;;;;;;;;;;;5034026;28;19918;-86
2022/06/05 01:24:00;;;;;;;;;;;;;;;;;;5028067;28;19924;-85
2022/06/05 01:26:34;;;;;;;;;;;;;;;;;;5032597;28;20002;-86
2022/06/05 01:29:05;;;;;;;;;;;;;;;;;;5032601;28;19917;-87
2022/06/05 01:31:30;;;;;;;;;;;;;;;;;;5033636;28;20266;-88
2022/06/05 01:34:07;;;;;;;;;;;;;;;;;;5032647;28;19931;-88
2022/06/05 01:36:39;;;;;;;;;;;;;;;;;;5033649;28;20000;-86
2022/06/05 01:39:09;;;;;;;;;;;;;;;;;;5032603;28;19964;-86
2022/06/05 01:41:46;;;;;;;;;;;;;;;;;;5033795;28;19964;-89
2022/06/05 01:44:15;;;;;;;;;;;;;;;;;;5033807;28;19928;-86
2022/06/05 01:46:40;;;;;;;;;;;;;;;;;;5033637;28;20004;-88
2022/06/05 01:49:11;;;;;;;;;;;;;;;;;;5033777;28;19963;-87
2022/06/05 01:51:42;;;;;;;;;;;;;;;;;;5034766;28;19962;-86
2022/06/05 01:54:12;;;;;;;;;;;;;;;;;;5037454;28;20012;-87
2022/06/05 01:56:42;;;;;;;;;;;;;;;;;;5035998;28;19913;-86
2022/06/05 01:59:29;;;;;;;;;;;;;;;;;;5037237;28;19917;-85
2022/06/05 02:01:57;;;;;;;;;;;;;;;;;;5037213;28;19963;-86
2022/06/05 02:04:32;;;;;;;;;;;;;;;;;;5037383;28;19925;-86
2022/06/05 02:07:00;;;;;;;;;;;;;;;;;;5036006;28;20377;-86
2022/06/05 02:09:29;;;;;;;;;;;;;;;;;;5037733;28;19917;-86
2022/06/05 02:11:54;;;;;;;;;;;;;;;;;;5037191;28;19956;-91
2022/06/05 02:14:20;;;;;;;;;;;;;;;;;;5035526;28;19917;-86
2022/06/05 02:16:46;;;;;;;;;;;;;;;;;;5036791;28;19940;-87
2022/06/05 02:19:15;;;;;;;;;;;;;;;;;;5036751;28;19921;-86
2022/06/05 02:21:41;;;;;;;;;;;;;;;;;;5035629;28;20364;-85
2022/06/05 02:24:07;;;;;;;;;;;;;;;;;;5036824;28;19924;-86
2022/06/05 02:26:33;;;;;;;;;;;;;;;;;;5036891;28;19917;-87
2022/06/05 02:29:01;;;;;;;;;;;;;;;;;;5036845;28;19917;-88
2022/06/05 02:31:37;;;;;;;;;;;;;;;;;;5036697;28;19963;-86
2022/06/05 02:34:08;;;;;;;;;;;;;;;;;;5036713;28;19917;-88
2022/06/05 02:36:43;;;;;;;;;;;;;;;;;;5035223;28;20345;-86
2022/06/05 02:39:21;;;;;;;;;;;;;;;;;;5035294;28;19918;-85
2022/06/05 02:41:54;;;;;;;;;;;;;;;;;;5036243;28;19928;-85
2022/06/05 02:44:29;;;;;;;;;;;;;;;;;;5036431;28;20380;-85
2022/06/05 02:47:14;;;;;;;;;;;;;;;;;;5036427;28;19939;-90
2022/06/05 02:49:45;;;;;;;;;;;;;;;;;;5036289;28;19917;-87
2022/06/05 02:52:11;;;;;;;;;;;;;;;;;;5036194;28;19999;-85
2022/06/05 02:54:41;;;;;;;;;;;;;;;;;;5034896;28;19979;-86
2022/06/05 02:57:07;;;;;;;;;;;;;;;;;;5035998;28;19918;-86
2022/06/05 02:59:32;;;;;;;;;;;;;;;;;;5036352;28;20011;-85
2022/06/05 03:04:42;;;;;;;;;;;;;;;;;;5035913;28;19951;-86
2022/06/05 03:07:07;;;;;;;;;;;;;;;;;;5036101;28;19917;-87
2022/06/05 03:09:33;;;;;;;;;;;;;;;;;;5035761;28;20024;-93
2022/06/05 03:11:59;;;;;;;;;;;;;;;;;;5035889;28;19924;-86
2022/06/05 03:14:24;;;;;;;;;;;;;;;;;;5034544;28;19952;-86
2022/06/05 03:16:50;;;;;;;;;;;;;;;;;;5035877;28;20303;-88
2022/06/05 03:19:15;;;;;;;;;;;;;;;;;;5035646;28;19921;-87
2022/06/05 03:21:40;;;;;;;;;;;;;;;;;;5034364;28;20012;-87
2022/06/05 03:24:07;;;;;;;;;;;;;;;;;;5035650;28;19917;-87
2022/06/05 03:26:32;;;;;;;;;;;;;;;;;;5034239;28;20023;-87
2022/06/05 03:28:58;;;;;;;;;;;;;;;;;;5035663;28;20023;-87
2022/06/05 03:31:23;;;;;;;;;;;;;;;;;;5034167;28;19924;-86
2022/06/05 03:33:49;;;;;;;;;;;;;;;;;;5035496;28;19917;-86
2022/06/05 03:36:16;;;;;;;;;;;;;;;;;;5035638;28;19924;-92
2022/06/05 03:38:41;;;;;;;;;;;;;;;;;;5035533;28;19964;-87
2022/06/05 03:41:08;;;;;;;;;;;;;;;;;;5035101;28;20359;-86
2022/06/05 03:43:34;;;;;;;;;;;;;;;;;;5035440;28;19971;-86
2022/06/05 03:46:03;;;;;;;;;;;;;;;;;;5035363;28;19917;-85
2022/06/05 03:48:29;;;;;;;;;;;;;;;;;;5035365;28;20379;-91
2022/06/05 03:50:54;;;;;;;;;;;;;;;;;;5035463;28;20008;-86
2022/06/05 03:53:19;;;;;;;;;;;;;;;;;;5035216;28;19917;-86
2022/06/05 03:55:45;;;;;;;;;;;;;;;;;;5035278;28;19964;-90
2022/06/05 03:58:10;;;;;;;;;;;;;;;;;;5035092;28;20027;-85
2022/06/05 04:00:36;;;;;;;;;;;;;;;;;;5035344;28;20257;-91
2022/06/05 04:03:01;;;;;;;;;;;;;;;;;;5035121;28;19930;-86
2022/06/05 04:05:27;;;;;;;;;;;;;;;;;;5035021;28;19975;-86
2022/06/05 04:07:52;;;;;;;;;;;;;;;;;;5034918;28;19917;-86
2022/06/05 04:10:18;;;;;;;;;;;;;;;;;;5034954;28;20016;-86
2022/06/05 04:12:44;;;;;;;;;;;;;;;;;;5034801;28;20019;-89
2022/06/05 04:15:10;;;;;;;;;;;;;;;;;;5033820;28;19917;-87
2022/06/05 04:17:36;;;;;;;;;;;;;;;;;;5033538;28;20324;-92
2022/06/05 04:20:03;;;;;;;;;;;;;;;;;;5034554;28;19921;-89
2022/06/05 04:22:28;;;;;;;;;;;;;;;;;;5033289;28;19921;-86
2022/06/05 04:24:54;;;;;;;;;;;;;;;;;;5033474;28;19917;-88
2022/06/05 04:27:20;;;;;;;;;;;;;;;;;;5034615;28;19917;-87
2022/06/05 04:29:45;;;;;;;;;;;;;;;;;;5034644;28;20278;-86
2022/06/05 04:32:11;;;;;;;;;;;;;;;;;;5034789;28;19925;-88
2022/06/05 04:34:37;;;;;;;;;;;;;;;;;;5034523;28;19917;-88
2022/06/05 04:37:02;;;;;;;;;;;;;;;;;;5034393;28;20361;-86
2022/06/05 04:39:28;;;;;;;;;;;;;;;;;;5050127;28;20000;-88
2022/06/05 04:41:53;;;;;;;;;;;;;;;;;;5055366;28;19925;-86
2022/06/05 04:44:19;;;;;;;;;;;;;;;;;;5051410;28;19917;-86
2022/06/05 04:46:44;;;;;;;;;;;;;;;;;;5046134;28;19917;-86
2022/06/05 04:49:11;;;;;;;;;;;;;;;;;;5038236;28;19917;-86
2022/06/05 04:51:37;;;;;;;;;;;;;;;;;;5035733;28;19991;-87
2022/06/05 04:54:02;;;;;;;;;;;;;;;;;;5034673;28;19917;-86
2022/06/05 04:56:28;;;;;;;;;;;;;;;;;;5032872;28;19925;-88
2022/06/05 04:58:55;;;;;;;;;;;;;;;;;;5034095;28;19923;-86
2022/06/05 05:01:22;;;;;;;;;;;;;;;;;;5034185;28;19917;-87
2022/06/05 05:03:50;;;;;;;;;;;;;;;;;;5032676;28;20265;-90
2022/06/05 05:06:15;;;;;;;;;;;;;;;;;;5034060;28;19917;-86
2022/06/05 05:08:41;;;;;;;;;;;;;;;;;;5033820;28;20296;-91
2022/06/05 05:11:06;;;;;;;;;;;;;;;;;;5033870;28;20336;-85
2022/06/05 05:13:32;;;;;;;;;;;;;;;;;;5034025;28;19978;-87
2022/06/05 05:15:57;;;;;;;;;;;;;;;;;;5033845;28;19956;-92
2022/06/05 05:18:23;;;;;;;;;;;;;;;;;;5033603;28;19960;-86
2022/06/05 05:20:49;;;;;;;;;;;;;;;;;;5033818;28;19924;-86
2022/06/05 05:23:14;;;;;;;;;;;;;;;;;;5032472;28;19917;-88
2022/06/05 05:25:40;;;;;;;;;;;;;;;;;;5033343;28;19963;-90
2022/06/05 05:28:08;;;;;;;;;;;;;;;;;;5037733;28;19939;-87
2022/06/05 05:30:34;;;;;;;;;;;;;;;;;;5037597;28;20003;-86
2022/06/05 05:33:00;;;;;;;;;;;;;;;;;;5037646;28;19979;-88
2022/06/05 05:35:25;;;;;;;;;;;;;;;;;;5037528;28;20284;-86
2022/06/05 05:37:51;;;;;;;;;;;;;;;;;;5037520;28;20377;-86
2022/06/05 05:43:01;;;;;;;;;;;;;;;;;;5037799;28;19928;-86
2022/06/05 05:45:27;;;;;;;;;;;;;;;;;;5037325;28;19979;-89
2022/06/05 05:47:52;;;;;;;;;;;;;;;;;;5036047;28;20361;-87
2022/06/05 05:50:17;;;;;;;;;;;;;;;;;;5037454;28;19927;-86
2022/06/05 05:52:44;;;;;;;;;;;;;;;;;;5037260;28;19918;-86
2022/06/05 05:55:15;;;;;;;;;;;;;;;;;;5037312;28;19971;-87
2022/06/05 05:57:40;;;;;;;;;;;;;;;;;;5037244;28;19969;-86
2022/06/05 06:00:09;;;;;;;;;;;;;;;;;;5037155;28;19960;-86
2022/06/05 06:02:34;;;;;;;;;;;;;;;;;;5037180;28;20392;-87
2022/06/05 06:05:00;;;;;;;;;;;;;;;;;;5036990;28;19917;-87
2022/06/05 06:07:26;;;;;;;;;;;;;;;;;;5037024;28;20334;-86
2022/06/05 06:09:51;;;;;;;;;;;;;;;;;;5035707;28;20296;-92
2022/06/05 06:12:16;;;;;;;;;;;;;;;;;;5036828;28;20388;-86
2022/06/05 06:14:42;;;;;;;;;;;;;;;;;;5037096;28;19990;-88
2022/06/05 06:17:08;;;;;;;;;;;;;;;;;;5019065;28;19918;-86
2022/06/05 06:19:33;;;;;;;;;;;;;;;;;;5036834;28;19917;-88
2022/06/05 06:21:59;;;;;;;;;;;;;;;;;;5036831;28;19917;-90
2022/06/05 06:24:24;;;;;;;;;;;;;;;;;;5035365;28;19963;-87
2022/06/05 06:26:49;;;;;;;;;;;;;;;;;;5036793;28;19917;-89
2022/06/05 06:29:15;;;;;;;;;;;;;;;;;;5036442;28;20369;-86
2022/06/05 06:31:42;;;;;;;;;;;;;;;;;;5036612;28;20434;-87
2022/06/05 06:34:07;;;;;;;;;;;;;;;;;;5036538;28;19914;-87
2022/06/05 06:36:32;;;;;;;;;;;;;;;;;;5034851;28;19917;-87
2022/06/05 06:38:58;;;;;;;;;;;;;;;;;;5035684;28;19917;-89
2022/06/05 06:41:24;;;;;;;;;;;;;;;;;;5036196;28;20434;-86
2022/06/05 06:43:50;;;;;;;;;;;;;;;;;;5036383;28;19932;-86
2022/06/05 06:46:16;;;;;;;;;;;;;;;;;;5036291;28;19913;-86
2022/06/05 06:48:42;;;;;;;;;;;;;;;;;;5036151;28;19967;-86
2022/06/05 06:51:08;;;;;;;;;;;;;;;;;;5036449;28;19982;-87
2022/06/05 06:53:35;;;;;;;;;;;;;;;;;;5036194;28;19917;-87
2022/06/05 06:56:05;;;;;;;;;;;;;;;;;;5036168;28;19917;-88
2022/06/05 06:58:31;;;;;;;;;;;;;;;;;;5034723;28;19944;-87
2022/06/05 07:00:56;;;;;;;;;;;;;;;;;;5035898;28;19921;-86
2022/06/05 07:03:22;;;;;;;;;;;;;;;;;;5035974;28;19921;-87
2022/06/05 07:05:47;;;;;;;;;;;;;;;;;;5035940;28;20376;-87
2022/06/05 07:08:12;;;;;;;;;;;;;;;;;;5035809;28;19924;-86
2022/06/05 07:10:38;;;;;;;;;;;;;;;;;;5035802;28;19964;-86
2022/06/05 07:13:04;;;;;;;;;;;;;;;;;;5035748;28;19948;-87
2022/06/05 07:15:34;;;;;;;;;;;;;;;;;;5035871;28;19924;-92
2022/06/05 07:18:03;;;;;;;;;;;;;;;;;;5035751;28;20024;-87
2022/06/05 07:20:31;;;;;;;;;;;;;;;;;;5035571;28;19967;-86
2022/06/05 07:22:56;;;;;;;;;;;;;;;;;;5035554;28;19928;-87
2022/06/05 07:25:22;;;;;;;;;;;;;;;;;;5035463;28;19921;-87
2022/06/05 07:27:47;;;;;;;;;;;;;;;;;;5035846;28;20288;-91
2022/06/05 07:30:12;;;;;;;;;;;;;;;;;;5035277;28;19922;-87
2022/06/05 07:32:38;;;;;;;;;;;;;;;;;;5035316;28;19963;-86
2022/06/05 07:35:03;;;;;;;;;;;;;;;;;;5035266;28;19920;-87
2022/06/05 07:37:29;;;;;;;;;;;;;;;;;;5035310;28;19917;-91
2022/06/05 07:39:54;;;;;;;;;;;;;;;;;;5035133;28;19917;-89
2022/06/05 07:42:20;;;;;;;;;;;;;;;;;;5035504;28;19917;-87
2022/06/05 07:44:45;;;;;;;;;;;;;;;;;;5035097;28;19967;-86
2022/06/05 07:47:11;;;;;;;;;;;;;;;;;;5035083;28;20003;-91
2022/06/05 07:49:40;;;;;;;;;;;;;;;;;;5034870;28;19917;-86
2022/06/05 07:54:50;;;;;;;;;;;;;;;;;;5035399;28;19975;-87
2022/06/05 07:57:18;;;;;;;;;;;;;;;;;;5034828;28;19952;-87
2022/06/05 07:59:45;;;;;;;;;;;;;;;;;;5034812;28;19955;-88
2022/06/05 08:02:12;;;;;;;;;;;;;;;;;;5034958;28;19940;-86
2022/06/05 08:04:38;;;;;;;;;;;;;;;;;;5034795;28;19917;-89
2022/06/05 08:07:06;;;;;;;;;;;;;;;;;;5034651;28;19924;-86
2022/06/05 08:09:32;;;;;;;;;;;;;;;;;;5034763;28;19917;-91
2022/06/05 08:11:57;;;;;;;;;;;;;;;;;;5034637;28;19921;-87
2022/06/05 08:14:23;;;;;;;;;;;;;;;;;;5033296;28;19924;-89
2022/06/05 08:16:49;;;;;;;;;;;;;;;;;;5034446;28;19917;-91
2022/06/05 08:19:16;;;;;;;;;;;;;;;;;;5034528;28;19925;-90
2022/06/05 08:21:41;;;;;;;;;;;;;;;;;;5033340;28;19982;-86
2022/06/05 08:24:07;;;;;;;;;;;;;;;;;;5034406;28;19921;-87
2022/06/05 08:26:33;;;;;;;;;;;;;;;;;;5034724;28;19917;-88
2022/06/05 08:28:59;;;;;;;;;;;;;;;;;;5034370;28;19917;-87
2022/06/05 08:31:24;;;;;;;;;;;;;;;;;;5035095;28;19917;-94
2022/06/05 08:33:49;;;;;;;;;;;;;;;;;;5033540;28;19963;-93
2022/06/05 08:36:15;;;;;;;;;;;;;;;;;;5034729;28;19917;-92
2022/06/05 08:41:32;;;;;;;;;;;;;;;;;;5052563;28;19932;-88
2022/06/05 08:44:05;;;;;;;;;;;;;;;;;;5050681;28;19917;-87
2022/06/05 08:46:49;;;;;;;;;;;;;;;;;;5050890;28;19913;-87
2022/06/05 08:49:33;;;;;;;;;;;;;;;;;;5042111;28;19980;-89
2022/06/05 08:52:27;;;;;;;;;;;;;;;;;;5035295;28;19913;-86
2022/06/05 08:54:54;;;;;;;;;;;;;;;;;;5011760;28;19979;-88
2022/06/05 08:57:32;;;;;;;;;;;;;;;;;;5033961;28;19917;-87
2022/06/05 08:59:57;;;;;;;;;;;;;;;;;;5033998;28;20429;-87
2022/06/05 09:02:49;;;;;;;;;;;;;;;;;;5034082;28;19960;-89
2022/06/05 09:05:20;;;;;;;;;;;;;;;;;;5031005;28;20000;-88
2022/06/05 09:07:57;;;;;;;;;;;;;;;;;;5034075;28;19917;-90
2022/06/05 09:10:22;;;;;;;;;;;;;;;;;;5033786;28;19921;-87
2022/06/05 09:13:08;;;;;;;;;;;;;;;;;;5033901;28;19924;-87
2022/06/05 09:15:33;;;;;;;;;;;;;;;;;;5023211;28;20369;-87
2022/06/05 09:17:59;;;;;;;;;;;;;;;;;;5033872;28;19917;-87
2022/06/05 09:20:51;;;;;;;;;;;;;;;;;;5033924;28;19955;-94
2022/06/05 09:23:31;;;;;;;;;;;;;;;;;;5030790;28;19913;-87
2022/06/05 09:25:57;;;;;;;;;;;;;;;;;;5033939;28;19964;-87
2022/06/05 09:28:23;;;;;;;;;;;;;;;;;;5032387;28;19953;-88
2022/06/05 09:31:19;;;;;;;;;;;;;;;;;;5034109;28;19924;-92
2022/06/05 09:33:46;;;;;;;;;;;;;;;;;;5033773;28;19913;-87
2022/06/05 09:36:13;;;;;;;;;;;;;;;;;;5033675;28;19917;-90
2022/06/05 09:38:45;;;;;;;;;;;;;;;;;;5033587;28;19924;-88
2022/06/05 09:41:10;;;;;;;;;;;;;;;;;;5033520;28;19928;-87
2022/06/05 09:43:36;;;;;;;;;;;;;;;;;;5032584;28;19918;-88
2022/06/05 09:46:02;;;;;;;;;;;;;;;;;;5033809;28;19937;-87
2022/06/05 09:48:35;;;;;;;;;;;;;;;;;;5033663;28;19929;-87
2022/06/05 09:51:01;;;;;;;;;;;;;;;;;;5033756;28;19917;-88
2022/06/05 09:53:29;;;;;;;;;;;;;;;;;;5033705;28;19924;-86
2022/06/05 09:55:59;;;;;;;;;;;;;;;;;;5033509;28;19924;-88
2022/06/05 09:58:44;;;;;;;;;;;;;;;;;;5032359;28;19924;-89
2022/06/05 10:01:20;;;;;;;;;;;;;;;;;;5033585;28;20431;-87
2022/06/05 10:03:46;;;;;;;;;;;;;;;;;;5034349;28;19963;-86
2022/06/05 10:06:17;;;;;;;;;;;;;;;;;;5034222;28;19921;-87
2022/06/05 10:08:45;;;;;;;;;;;;;;;;;;5034369;28;19923;-87
2022/06/05 10:11:29;;;;;;;;;;;;;;;;;;5033435;28;19924;-86
2022/06/05 10:14:00;;;;;;;;;;;;;;;;;;5036011;28;20361;-87
2022/06/05 10:16:31;;;;;;;;;;;;;;;;;;5036954;28;19956;-90
2022/06/05 10:19:16;;;;;;;;;;;;;;;;;;5036839;28;19917;-90
2022/06/05 10:21:46;;;;;;;;;;;;;;;;;;5035645;28;19925;-88
2022/06/05 10:24:21;;;;;;;;;;;;;;;;;;5037126;28;19928;-87
2022/06/05 10:26:47;;;;;;;;;;;;;;;;;;5036840;28;19921;-87
2022/06/05 10:29:23;;;;;;;;;;;;;;;;;;5036571;28;19917;-87
2022/06/05 10:31:54;;;;;;;;;;;;;;;;;;5035617;28;20371;-89
2022/06/05 10:34:23;;;;;;;;;;;;;;;;;;5035288;28;19917;-86
2022/06/05 10:36:58;;;;;;;;;;;;;;;;;;5036817;28;19917;-85
2022/06/05 10:39:43;;;;;;;;;;;;;;;;;;5036846;28;19917;-89
2022/06/05 10:42:25;;;;;;;;;;;;;;;;;;5037256;28;19928;-86
2022/06/05 10:44:53;;;;;;;;;;;;;;;;;;5036605;28;19918;-86
2022/06/05 10:47:37;;;;;;;;;;;;;;;;;;5037064;28;19943;-86
2022/06/05 10:50:07;;;;;;;;;;;;;;;;;;5036837;28;19928;-86
2022/06/05 10:52:39;;;;;;;;;;;;;;;;;;5037166;28;19917;-87
2022/06/05 10:55:23;;;;;;;;;;;;;;;;;;5037430;28;20016;-86
2022/06/05 10:57:56;;;;;;;;;;;;;;;;;;5037463;28;19917;-88
2022/06/05 11:00:32;;;;;;;;;;;;;;;;;;5037368;28;20336;-87
2022/06/05 11:03:04;;;;;;;;;;;;;;;;;;5036619;28;20416;-87
2022/06/05 11:05:38;;;;;;;;;;;;;;;;;;5036324;28;19964;-86
2022/06/05 11:08:03;;;;;;;;;;;;;;;;;;5034787;28;20316;-86
2022/06/05 11:13:39;;;;;;;;;;;;;;;;;;5036096;28;19919;-86
2022/06/05 11:16:20;;;;;;;;;;;;;;;;;;5034772;28;19923;-90
2022/06/05 11:18:50;;;;;;;;;;;;;;;;;;5036006;28;19924;-86
2022/06/05 11:21:17;;;;;;;;;;;;;;;;;;5035728;28;19939;-87
2022/06/05 11:23:42;;;;;;;;;;;;;;;;;;5036168;28;20262;-86
2022/06/05 11:26:21;;;;;;;;;;;;;;;;;;5037150;28;19924;-87
2022/06/05 11:29:05;;;;;;;;;;;;;;;;;;5037119;28;19976;-90
2022/06/05 11:32:03;;;;;;;;;;;;;;;;;;5036822;28;19917;-86
2022/06/05 11:34:32;;;;;;;;;;;;;;;;;;5003864;28;19917;-86
2022/06/05 11:37:18;;;;;;;;;;;;;;;;;;5036596;28;19963;-94
2022/06/05 11:39:49;;;;;;;;;;;;;;;;;;5004944;28;20323;-89
2022/06/05 11:42:17;;;;;;;;;;;;;;;;;;5035653;28;20354;-90
2022/06/05 11:45:03;;;;;;;;;;;;;;;;;;5035733;28;20392;-86
2022/06/05 11:47:54;;;;;;;;;;;;;;;;;;5024752;28;20369;-87
2022/06/05 11:50:35;;;;;;;;;;;;;;;;;;5034259;28;20427;-92
2022/06/05 11:53:03;;;;;;;;;;;;;;;;;;5035670;28;19924;-85
2022/06/05 11:55:46;;;;;;;;;;;;;;;;;;5035330;28;19917;-87
2022/06/05 11:58:15;;;;;;;;;;;;;;;;;;5035111;28;19921;-86
2022/06/05 12:00:52;;;;;;;;;;;;;;;;;;5035105;28;19924;-86
2022/06/05 12:16:08;;;;;;;;;;;;;;;;;;5098854;27;2329605;-91
2022/06/05 12:18:54;;;;;;;;;;;;;;;;;;5180713;27;19919;-90
2022/06/05 12:21:36;;;;;;;;;;;;;;;;;;5185956;27;19946;-92
2022/06/05 12:24:02;;;;;;;;;;;;;;;;;;5184745;27;20383;-95
2022/06/05 12:26:50;;;;;;;;;;;;;;;;;;5186768;27;19898;-94
2022/06/05 12:29:20;;;;;;;;;;;;;;;;;;5188419;27;20005;-92
2022/06/05 12:31:52;;;;;;;;;;;;;;;;;;5188149;27;19923;-90
2022/06/05 12:34:27;;;;;;;;;;;;;;;;;;5188958;27;19918;-93
2022/06/05 12:37:01;;;;;;;;;;;;;;;;;;5167299;27;19915;-93
2022/06/05 12:39:27;;;;;;;;;;;;;;;;;;5188227;27;19922;-95
2022/06/05 12:41:56;;;;;;;;;;;;;;;;;;5169040;27;19915;-93
2022/06/05 12:44:29;;;;;;;;;;;;;;;;;;5188376;27;19915;-92
2022/06/05 12:47:04;;;;;;;;;;;;;;;;;;5185716;27;19919;-91
2022/06/05 12:49:32;;;;;;;;;;;;;;;;;;5169654;27;19936;-93
2022/06/05 12:52:07;;;;;;;;;;;;;;;;;;5168356;27;19919;-90
2022/06/05 12:54:40;;;;;;;;;;;;;;;;;;5170141;27;19915;-91
2022/06/05 12:57:08;;;;;;;;;;;;;;;;;;5169067;27;19940;-91
2022/06/05 12:59:40;;;;;;;;;;;;;;;;;;5187531;27;19915;-91
2022/06/05 13:02:18;;;;;;;;;;;;;;;;;;5185935;27;19938;-92
2022/06/05 13:04:51;;;;;;;;;;;;;;;;;;5179709;27;19915;-91
2022/06/05 13:07:42;;;;;;;;;;;;;;;;;;5177104;27;19997;-91
2022/06/05 13:10:17;;;;;;;;;;;;;;;;;;5137137;27;20301;-92
2022/06/05 13:25:23;;;;;;;;;;;;;;;;;;5093516;27;19916;-89
2022/06/05 13:28:07;;;;;;;;;;;;;;;;;;5091980;28;19932;-88
2022/06/05 13:30:41;;;;;;;;;;;;;;;;;;5091531;28;20382;-92
2022/06/05 13:33:10;;;;;;;;;;;;;;;;;;5092126;28;19966;-92
2022/06/05 13:35:43;;;;;;;;;;;;;;;;;;5092204;28;19940;-89
2022/06/05 13:38:17;;;;;;;;;;;;;;;;;;5092796;28;19966;-90
2022/06/05 13:40:49;;;;;;;;;;;;;;;;;;5092777;28;20010;-91
2022/06/05 13:43:24;;;;;;;;;;;;;;;;;;5090532;28;19913;-90
2022/06/05 13:57:56;;;;;;;;;;;;;;;;;;5157439;27;19915;-90
2022/06/05 14:00:54;;;;;;;;;;;;;;;;;;5148655;27;19926;-91
2022/06/05 14:03:45;;;;;;;;;;;;;;;;;;5128007;27;19915;-93
2022/06/05 14:06:15;;;;;;;;;;;;;;;;;;5153179;27;19990;-91
2022/06/05 14:09:07;;;;;;;;;;;;;;;;;;5161211;27;19922;-92
2022/06/05 14:11:32;;;;;;;;;;;;;;;;;;5181940;27;19950;-91
2022/06/05 14:13:58;;;;;;;;;;;;;;;;;;5160183;27;20282;-91
2022/06/05 14:16:32;;;;;;;;;;;;;;;;;;5196529;27;19968;-90
2022/06/05 14:19:01;;;;;;;;;;;;;;;;;;5163809;27;19899;-90
2022/06/05 14:21:32;;;;;;;;;;;;;;;;;;5199663;27;19921;-91
2022/06/05 14:24:20;;;;;;;;;;;;;;;;;;5199864;27;19916;-90
2022/06/05 14:26:50;;;;;;;;;;;;;;;;;;5197669;27;19916;-89
2022/06/05 14:29:30;;;;;;;;;;;;;;;;;;5199240;27;19936;-95
2022/06/05 14:31:59;;;;;;;;;;;;;;;;;;5164590;27;19917;-90
2022/06/05 14:34:30;;;;;;;;;;;;;;;;;;5164081;27;19915;-91
2022/06/05 14:37:05;;;;;;;;;;;;;;;;;;5165743;27;19911;-93
2022/06/05 14:39:33;;;;;;;;;;;;;;;;;;5165044;27;19926;-89
2022/06/05 14:42:02;;;;;;;;;;;;;;;;;;5192077;27;20396;-90
2022/06/05 14:44:47;;;;;;;;;;;;;;;;;;5165693;27;20405;-89
2022/06/05 14:47:18;;;;;;;;;;;;;;;;;;5159856;27;20289;-91
2022/06/05 14:49:46;;;;;;;;;;;;;;;;;;5161077;27;19922;-90
2022/06/05 15:04:28;;;;;;;;;;;;;;;;;;5132320;27;19961;-83
2022/06/05 15:07:01;;;;;;;;;;;;;;;;;;5132269;27;19942;-84
2022/06/05 15:09:36;;;;;;;;;;;;;;;;;;5132176;27;19962;-84
2022/06/05 15:12:06;;;;;;;;;;;;;;;;;;5132137;27;20455;-85
2022/06/05 15:14:55;;;;;;;;;;;;;;;;;;5132026;27;20393;-86
2022/06/05 15:17:38;;;;;;;;;;;;;;;;;;5126189;28;20359;-84
2022/06/05 15:20:13;;;;;;;;;;;;;;;;;;5132321;27;20369;-86
2022/06/05 15:22:57;;;;;;;;;;;;;;;;;;5132059;27;19911;-85
2022/06/05 15:25:46;;;;;;;;;;;;;;;;;;5132160;27;20389;-85
2022/06/05 15:28:17;;;;;;;;;;;;;;;;;;5125982;28;19922;-86
2022/06/05 15:30:53;;;;;;;;;;;;;;;;;;5131796;27;19912;-84
2022/06/05 15:33:24;;;;;;;;;;;;;;;;;;5130401;28;20379;-84
2022/06/05 15:36:02;;;;;;;;;;;;;;;;;;5131653;27;20011;-85
2022/06/05 15:38:39;;;;;;;;;;;;;;;;;;5131640;27;20391;-85
2022/06/05 15:41:11;;;;;;;;;;;;;;;;;;5131589;27;19922;-86
2022/06/05 15:44:00;;;;;;;;;;;;;;;;;;5131607;27;19915;-84
2022/06/05 15:46:44;;;;;;;;;;;;;;;;;;5131506;27;19967;-86
2022/06/05 15:49:15;;;;;;;;;;;;;;;;;;5131502;27;19923;-84
2022/06/05 15:51:59;;;;;;;;;;;;;;;;;;5131366;27;20007;-88
2022/06/05 15:54:37;;;;;;;;;;;;;;;;;;5131434;27;19977;-85
2022/06/05 15:57:11;;;;;;;;;;;;;;;;;;5131215;27;19919;-86
2022/06/05 15:59:52;;;;;;;;;;;;;;;;;;5131335;27;19923;-85
2022/06/05 16:02:20;;;;;;;;;;;;;;;;;;5130883;27;19920;-85
2022/06/05 16:04:47;;;;;;;;;;;;;;;;;;5120220;27;19916;-86
2022/06/05 16:07:14;;;;;;;;;;;;;;;;;;5116141;28;19941;-85
2022/06/05 16:09:42;;;;;;;;;;;;;;;;;;5117363;28;19915;-85
2022/06/05 16:12:15;;;;;;;;;;;;;;;;;;5117183;28;19982;-85
2022/06/05 16:14:41;;;;;;;;;;;;;;;;;;5117261;28;19945;-85
2022/06/05 16:17:06;;;;;;;;;;;;;;;;;;5117298;28;19912;-84
2022/06/05 16:19:45;;;;;;;;;;;;;;;;;;5115963;28;19916;-93
2022/06/05 16:22:13;;;;;;;;;;;;;;;;;;5116000;28;19935;-86
2022/06/05 16:24:49;;;;;;;;;;;;;;;;;;5116267;28;19923;-87
2022/06/05 16:27:25;;;;;;;;;;;;;;;;;;5117478;28;19918;-87
2022/06/05 16:29:51;;;;;;;;;;;;;;;;;;5116268;28;19916;-93
2022/06/05 16:32:36;;;;;;;;;;;;;;;;;;5115698;28;19915;-86
2022/06/05 16:37:53;;;;;;;;;;;;;;;;;;5117428;28;19919;-86
2022/06/05 16:40:24;;;;;;;;;;;;;;;;;;5117177;28;19916;-85
2022/06/05 16:42:58;;;;;;;;;;;;;;;;;;5117774;28;20255;-86
2022/06/05 16:45:26;;;;;;;;;;;;;;;;;;5117506;27;19915;-87
2022/06/05 16:47:58;;;;;;;;;;;;;;;;;;5115786;28;20366;-86
2022/06/05 16:50:31;;;;;;;;;;;;;;;;;;5115870;28;19954;-87
2022/06/05 16:52:59;;;;;;;;;;;;;;;;;;5116743;28;19916;-87
2022/06/05 16:55:28;;;;;;;;;;;;;;;;;;5117112;28;20409;-86
2022/06/05 16:57:53;;;;;;;;;;;;;;;;;;5116799;28;20374;-86
2022/06/05 17:00:20;;;;;;;;;;;;;;;;;;5115510;28;19923;-87
2022/06/05 17:03:08;;;;;;;;;;;;;;;;;;5116607;28;19920;-92
2022/06/05 17:05:37;;;;;;;;;;;;;;;;;;5116724;28;19956;-86
2022/06/05 17:08:09;;;;;;;;;;;;;;;;;;5116857;28;19965;-89
2022/06/05 17:10:40;;;;;;;;;;;;;;;;;;5116960;27;20411;-88
2022/06/05 17:13:15;;;;;;;;;;;;;;;;;;5119801;28;19916;-87
2022/06/05 17:15:40;;;;;;;;;;;;;;;;;;5137338;28;19900;-86
2022/06/05 17:18:21;;;;;;;;;;;;;;;;;;5136311;28;19918;-87
2022/06/05 17:20:55;;;;;;;;;;;;;;;;;;5122141;28;19915;-87
2022/06/05 17:23:21;;;;;;;;;;;;;;;;;;5121798;28;19911;-86
2022/06/05 17:25:46;;;;;;;;;;;;;;;;;;5116760;28;19923;-86
2022/06/05 17:28:11;;;;;;;;;;;;;;;;;;5114886;28;19951;-86
2022/06/05 17:30:43;;;;;;;;;;;;;;;;;;5116075;28;20340;-86
2022/06/05 17:33:08;;;;;;;;;;;;;;;;;;5115844;28;19939;-85
2022/06/05 17:35:57;;;;;;;;;;;;;;;;;;5115709;28;20363;-87
2022/06/05 17:38:29;;;;;;;;;;;;;;;;;;5105620;28;19916;-86
2022/06/05 17:41:07;;;;;;;;;;;;;;;;;;5115510;28;19923;-86
2022/06/05 17:43:51;;;;;;;;;;;;;;;;;;5115638;28;19916;-86
2022/06/05 17:46:25;;;;;;;;;;;;;;;;;;5115612;28;19968;-86
2022/06/05 17:49:00;;;;;;;;;;;;;;;;;;5114106;28;19974;-86
2022/06/05 17:51:30;;;;;;;;;;;;;;;;;;5115447;28;19994;-87
2022/06/05 17:53:56;;;;;;;;;;;;;;;;;;5113964;28;20074;-86
2022/06/05 17:56:22;;;;;;;;;;;;;;;;;;5115354;28;19997;-86
2022/06/05 17:58:48;;;;;;;;;;;;;;;;;;5115441;28;19923;-84
2022/06/05 18:01:25;;;;;;;;;;;;;;;;;;5115122;28;20386;-84
2022/06/05 18:03:50;;;;;;;;;;;;;;;;;;5114935;28;19964;-86
2022/06/05 18:06:25;;;;;;;;;;;;;;;;;;5115141;28;19915;-84
2022/06/05 18:09:11;;;;;;;;;;;;;;;;;;5115171;28;19998;-86
2022/06/05 18:11:39;;;;;;;;;;;;;;;;;;5115017;28;19915;-87
2022/06/05 18:14:05;;;;;;;;;;;;;;;;;;5114942;27;20303;-86
2022/06/05 18:16:36;;;;;;;;;;;;;;;;;;5115011;28;19916;-86